createdAt,value
2017-07-03T00:00:45.832Z,76.80
2017-07-03T00:03:12.015Z,77.60
2017-07-03T00:05:38.188Z,77.40
2017-07-03T00:08:04.423Z,76.40
2017-07-03T00:10:30.565Z,76.00
2017-07-03T00:12:56.755Z,75.70
2017-07-03T00:15:23.312Z,76.20
2017-07-03T00:17:49.513Z,75.70
2017-07-03T00:20:16.423Z,76.20
2017-07-03T00:22:42.600Z,76.20
2017-07-03T00:25:08.811Z,75.90
2017-07-03T00:27:35.744Z,76.20
2017-07-03T00:30:01.936Z,76.20
2017-07-03T00:32:28.115Z,75.60
2017-07-03T00:34:55.054Z,76.50
2017-07-03T00:37:21.223Z,75.80
2017-07-03T00:39:47.440Z,75.60
2017-07-03T00:42:13.611Z,75.80
2017-07-03T00:44:39.812Z,75.20
2017-07-03T00:47:05.975Z,74.90
2017-07-03T00:49:32.120Z,74.50
2017-07-03T00:51:58.302Z,73.70
2017-07-03T00:54:24.448Z,74.20
2017-07-03T00:56:50.620Z,74.30
2017-07-03T00:59:17.605Z,73.60
2017-07-03T01:01:43.787Z,73.50
2017-07-03T01:04:10.727Z,73.80
2017-07-03T01:06:36.951Z,73.20
2017-07-03T01:09:03.167Z,72.70
2017-07-03T01:11:29.306Z,72.80
2017-07-03T01:13:55.489Z,72.90
2017-07-03T01:16:21.655Z,73.20
2017-07-03T01:18:47.886Z,73.00
2017-07-03T01:21:14.043Z,73.40
2017-07-03T01:23:40.994Z,74.00
2017-07-03T01:26:07.176Z,74.00
2017-07-03T01:28:33.380Z,74.80
2017-07-03T01:30:59.579Z,75.00
2017-07-03T01:33:25.778Z,74.20
2017-07-03T01:35:51.975Z,74.00
2017-07-03T01:38:18.147Z,74.60
2017-07-03T01:40:45.066Z,74.70
2017-07-03T01:43:11.642Z,74.60
2017-07-03T01:45:37.834Z,75.10
2017-07-03T01:48:04.031Z,74.60
2017-07-03T01:50:30.262Z,75.40
2017-07-03T01:52:56.434Z,75.50
2017-07-03T01:55:22.669Z,75.40
2017-07-03T01:57:48.882Z,75.80
2017-07-03T02:00:15.058Z,75.40
2017-07-03T02:02:41.248Z,74.80
2017-07-03T02:05:07.440Z,74.70
2017-07-03T02:07:33.636Z,74.80
2017-07-03T02:09:59.827Z,74.70
2017-07-03T02:12:26.031Z,74.80
2017-07-03T02:14:52.201Z,74.10
2017-07-03T02:17:19.124Z,74.80
2017-07-03T02:19:45.308Z,73.90
2017-07-03T02:22:11.470Z,74.40
2017-07-03T02:24:37.639Z,73.80
2017-07-03T02:27:03.834Z,72.40
2017-07-03T02:29:29.987Z,72.80
2017-07-03T02:31:56.902Z,72.40
2017-07-03T02:34:23.107Z,72.40
2017-07-03T02:36:49.294Z,72.30
2017-07-03T02:39:16.223Z,73.50
2017-07-03T02:41:42.374Z,73.50
2017-07-03T02:44:08.561Z,73.90
2017-07-03T02:46:34.750Z,74.40
2017-07-03T02:49:00.936Z,74.70
2017-07-03T02:51:27.844Z,75.50
2017-07-03T02:53:54.037Z,74.80
2017-07-03T02:56:20.247Z,74.80
2017-07-03T02:58:47.143Z,75.10
2017-07-03T03:01:13.323Z,75.10
2017-07-03T03:03:40.230Z,75.20
2017-07-03T03:06:06.415Z,75.20
2017-07-03T03:08:32.619Z,75.70
2017-07-03T03:10:59.551Z,75.30
2017-07-03T03:13:25.703Z,75.30
2017-07-03T03:15:51.905Z,75.10
2017-07-03T03:18:18.066Z,74.90
2017-07-03T03:20:44.242Z,75.40
2017-07-03T03:23:10.405Z,74.70
2017-07-03T03:25:37.360Z,75.00
2017-07-03T03:28:03.562Z,75.70
2017-07-03T03:30:29.735Z,75.80
2017-07-03T03:32:55.915Z,75.70
2017-07-03T03:35:22.087Z,75.00
2017-07-03T03:37:48.234Z,74.30
2017-07-03T03:40:29.325Z,73.90
2017-07-03T03:42:55.522Z,73.70
2017-07-03T03:45:21.730Z,73.80
2017-07-03T03:47:48.649Z,73.00
2017-07-03T03:50:14.820Z,73.00
2017-07-03T03:52:41.009Z,72.90
2017-07-03T03:55:07.180Z,73.10
2017-07-03T03:57:33.401Z,72.60
2017-07-03T03:59:59.567Z,72.80
2017-07-03T04:02:25.774Z,73.00
2017-07-03T04:04:51.923Z,72.60
2017-07-03T04:07:18.116Z,73.10
2017-07-03T04:09:44.784Z,72.60
2017-07-03T04:12:11.027Z,72.80
2017-07-03T04:14:37.195Z,72.80
2017-07-03T04:17:04.113Z,72.40
2017-07-03T04:19:30.279Z,72.40
2017-07-03T04:21:56.496Z,72.30
2017-07-03T04:24:23.413Z,72.60
2017-07-03T04:26:50.330Z,71.90
2017-07-03T04:29:16.488Z,71.80
2017-07-03T04:31:42.653Z,71.20
2017-07-03T04:34:08.814Z,70.60
2017-07-03T04:36:35.003Z,69.70
2017-07-03T04:39:01.198Z,69.40
2017-07-03T04:41:27.395Z,69.00
2017-07-03T04:43:53.561Z,68.90
2017-07-03T04:46:19.766Z,68.50
2017-07-03T04:48:45.933Z,68.50
2017-07-03T04:51:12.894Z,68.90
2017-07-03T04:53:39.071Z,68.80
2017-07-03T04:56:05.231Z,67.50
2017-07-03T04:58:32.156Z,67.00
2017-07-03T05:00:58.363Z,67.00
2017-07-03T05:03:24.595Z,67.00
2017-07-03T05:05:50.802Z,66.80
2017-07-03T05:08:16.962Z,65.50
2017-07-03T05:10:43.177Z,65.00
2017-07-03T05:13:09.362Z,64.30
2017-07-03T05:15:35.536Z,65.00
2017-07-03T05:18:01.694Z,63.90
2017-07-03T05:20:28.774Z,63.00
2017-07-03T05:22:54.923Z,63.50
2017-07-03T05:25:21.054Z,63.30
2017-07-03T05:27:47.259Z,63.00
2017-07-03T05:30:13.484Z,62.70
2017-07-03T05:32:39.696Z,61.70
2017-07-03T05:35:06.672Z,60.60
2017-07-03T05:37:32.819Z,60.60
2017-07-03T05:39:59.042Z,61.70
2017-07-03T05:42:25.241Z,61.00
2017-07-03T05:44:51.416Z,61.80
2017-07-03T05:47:17.636Z,60.40
2017-07-03T05:49:43.811Z,59.80
2017-07-03T05:52:10.772Z,59.00
2017-07-03T05:54:36.939Z,58.90
2017-07-03T05:57:03.133Z,58.50
2017-07-03T05:59:29.322Z,58.70
2017-07-03T06:01:55.520Z,58.70
2017-07-03T06:04:21.694Z,57.90
2017-07-03T06:06:48.633Z,58.10
2017-07-03T06:09:15.572Z,59.80
2017-07-03T06:11:41.809Z,59.60
2017-07-03T06:14:08.724Z,61.80
2017-07-03T06:16:34.931Z,61.10
2017-07-03T06:19:01.145Z,60.60
2017-07-03T06:21:27.308Z,61.20
2017-07-03T06:23:53.517Z,61.50
2017-07-03T06:26:20.545Z,61.10
2017-07-03T06:28:46.836Z,60.90
2017-07-03T06:31:13.469Z,60.80
2017-07-03T06:33:39.862Z,61.20
2017-07-03T06:36:06.036Z,62.00
2017-07-03T06:38:32.239Z,60.90
2017-07-03T06:40:58.522Z,61.30
2017-07-03T06:43:24.705Z,61.30
2017-07-03T06:45:51.788Z,61.20
2017-07-03T06:48:18.715Z,61.10
2017-07-03T06:50:44.915Z,61.10
2017-07-03T06:53:11.086Z,61.80
2017-07-03T06:55:37.984Z,62.10
2017-07-03T06:58:04.173Z,62.10
2017-07-03T07:00:30.342Z,62.90
2017-07-03T07:02:56.515Z,62.70
2017-07-03T07:05:23.462Z,63.60
2017-07-03T07:07:50.435Z,62.90
2017-07-03T07:10:16.619Z,63.20
2017-07-03T07:12:42.808Z,63.20
2017-07-03T07:15:08.993Z,62.80
2017-07-03T07:17:35.898Z,61.80
2017-07-03T07:20:02.111Z,62.00
2017-07-03T07:22:28.263Z,64.00
2017-07-03T07:24:54.451Z,62.30
2017-07-03T07:27:20.642Z,61.90
2017-07-03T07:29:46.909Z,59.40
2017-07-03T07:32:13.296Z,57.90
2017-07-03T07:34:39.500Z,57.90
2017-07-03T07:37:05.686Z,58.00
2017-07-03T07:39:31.878Z,56.30
2017-07-03T07:41:58.069Z,55.60
2017-07-03T07:44:24.252Z,55.60
2017-07-03T07:46:50.478Z,55.90
2017-07-03T07:49:17.417Z,53.90
2017-07-03T07:51:43.612Z,54.20
2017-07-03T07:54:09.823Z,51.60
2017-07-03T07:56:36.019Z,49.70
2017-07-03T07:59:02.949Z,51.50
2017-07-03T08:01:29.866Z,51.50
2017-07-03T08:03:56.075Z,51.40
2017-07-03T08:06:22.305Z,53.20
2017-07-03T08:08:48.483Z,55.20
2017-07-03T08:11:15.385Z,55.10
2017-07-03T08:13:41.558Z,55.00
2017-07-03T08:16:08.471Z,49.90
2017-07-03T08:21:11.171Z,50.10
2017-07-03T08:23:52.276Z,50.20
2017-07-03T08:26:19.220Z,50.40
2017-07-03T08:28:46.127Z,49.60
2017-07-03T08:31:12.303Z,50.10
2017-07-03T08:33:39.267Z,51.20
2017-07-03T08:36:05.468Z,51.00
2017-07-03T08:38:32.395Z,52.10
2017-07-03T08:41:00.468Z,49.30
2017-07-03T08:43:26.720Z,49.70
2017-07-03T08:45:53.680Z,49.30
2017-07-03T08:48:19.831Z,49.20
2017-07-03T08:50:46.010Z,48.00
2017-07-03T08:53:12.243Z,49.00
2017-07-03T08:55:39.135Z,48.70
2017-07-03T08:58:05.318Z,48.10
2017-07-03T09:00:32.310Z,48.40
2017-07-03T09:02:58.561Z,48.30
2017-07-03T09:05:24.753Z,45.70
2017-07-03T09:07:50.970Z,47.10
2017-07-03T09:10:17.175Z,46.70
2017-07-03T09:12:43.370Z,47.30
2017-07-03T09:15:09.621Z,49.00
2017-07-03T09:17:35.805Z,47.40
2017-07-03T09:20:02.014Z,47.80
2017-07-03T09:22:28.202Z,45.60
2017-07-03T09:24:54.387Z,46.70
2017-07-03T09:27:20.593Z,48.00
2017-07-03T09:29:46.820Z,46.50
2017-07-03T09:32:13.748Z,48.10
2017-07-03T09:34:39.969Z,47.40
2017-07-03T09:37:06.170Z,43.80
2017-07-03T09:39:32.350Z,43.90
2017-07-03T09:41:59.271Z,45.20
2017-07-03T09:44:26.335Z,45.10
2017-07-03T09:46:53.281Z,47.40
2017-07-03T09:49:20.223Z,46.70
2017-07-03T09:51:47.400Z,44.60
2017-07-03T09:54:13.655Z,42.20
2017-07-03T09:56:39.869Z,42.70
2017-07-03T09:59:06.065Z,45.40
2017-07-03T10:01:33.010Z,44.80
2017-07-03T10:03:59.968Z,44.50
2017-07-03T10:06:26.176Z,42.50
2017-07-03T10:08:53.134Z,42.90
2017-07-03T10:11:19.288Z,42.90
2017-07-03T10:13:45.482Z,44.90
2017-07-03T10:16:12.453Z,44.40
2017-07-03T10:18:38.649Z,43.80
2017-07-03T10:21:04.831Z,43.70
2017-07-03T10:23:31.003Z,43.00
2017-07-03T10:25:57.157Z,43.10
2017-07-03T10:28:24.119Z,43.30
2017-07-03T10:30:50.313Z,42.80
2017-07-03T10:33:17.251Z,43.70
2017-07-03T10:35:43.470Z,43.50
2017-07-03T10:38:24.579Z,46.10
2017-07-03T10:40:51.524Z,45.60
2017-07-03T10:43:18.580Z,44.30
2017-07-03T10:45:44.765Z,44.30
2017-07-03T10:48:11.102Z,43.90
2017-07-03T10:50:37.243Z,44.80
2017-07-03T10:53:03.427Z,47.10
2017-07-03T10:55:29.601Z,45.00
2017-07-03T10:57:55.871Z,46.10
2017-07-03T11:00:22.102Z,44.10
2017-07-03T11:02:48.332Z,43.20
2017-07-03T11:05:14.682Z,42.50
2017-07-03T11:07:40.855Z,43.10
2017-07-03T11:10:08.297Z,44.60
2017-07-03T11:12:35.094Z,46.00
2017-07-03T11:15:01.350Z,46.80
2017-07-03T11:17:27.858Z,46.10
2017-07-03T11:19:54.040Z,44.10
2017-07-03T11:22:20.286Z,44.40
2017-07-03T11:24:46.461Z,43.20
2017-07-03T11:27:12.680Z,40.50
2017-07-03T11:29:39.055Z,38.90
2017-07-03T11:32:05.242Z,39.70
2017-07-03T11:34:31.471Z,39.40
2017-07-03T11:36:57.636Z,40.20
2017-07-03T11:39:23.814Z,41.90
2017-07-03T11:41:49.999Z,42.90
2017-07-03T11:44:16.170Z,43.60
2017-07-03T11:46:42.324Z,45.00
2017-07-03T11:49:08.573Z,45.80
2017-07-03T11:51:34.821Z,42.30
2017-07-03T11:54:02.019Z,42.70
2017-07-03T11:56:28.187Z,42.20
2017-07-03T11:58:54.411Z,42.50
2017-07-03T12:01:20.598Z,42.50
2017-07-03T12:03:46.751Z,41.40
2017-07-03T12:06:13.161Z,41.30
2017-07-03T12:08:39.389Z,42.90
2017-07-03T12:11:05.619Z,43.90
2017-07-03T12:13:31.975Z,42.00
2017-07-03T12:15:58.227Z,40.00
2017-07-03T12:18:24.600Z,42.00
2017-07-03T12:20:50.823Z,41.70
2017-07-03T12:23:17.020Z,41.40
2017-07-03T12:25:43.240Z,41.50
2017-07-03T12:28:10.262Z,41.50
2017-07-03T12:30:36.717Z,40.90
2017-07-03T12:33:04.214Z,39.60
2017-07-03T12:35:30.427Z,40.60
2017-07-03T12:37:57.679Z,41.70
2017-07-03T12:40:24.683Z,41.40
2017-07-03T12:42:50.983Z,41.00
2017-07-03T12:45:17.295Z,42.70
2017-07-03T12:47:44.222Z,42.20
2017-07-03T12:50:10.452Z,41.20
2017-07-03T12:52:37.850Z,40.00
2017-07-03T12:55:05.387Z,41.30
2017-07-03T12:57:32.555Z,40.20
2017-07-03T12:59:58.942Z,39.60
2017-07-03T13:02:25.201Z,39.40
2017-07-03T13:04:52.160Z,40.50
2017-07-03T13:07:18.322Z,40.40
2017-07-03T13:09:44.641Z,37.80
2017-07-03T13:12:10.959Z,37.20
2017-07-03T13:14:37.141Z,38.00
2017-07-03T13:17:04.099Z,38.30
2017-07-03T13:19:31.300Z,39.30
2017-07-03T13:21:57.523Z,39.70
2017-07-03T13:24:24.923Z,38.80
2017-07-03T13:26:51.123Z,39.00
2017-07-03T13:29:17.399Z,38.90
2017-07-03T13:31:44.391Z,39.70
2017-07-03T13:34:10.771Z,38.50
2017-07-03T13:36:40.137Z,39.00
2017-07-03T13:39:07.456Z,39.30
2017-07-03T13:41:33.626Z,39.30
2017-07-03T13:43:59.819Z,38.90
2017-07-03T13:46:26.008Z,40.70
2017-07-03T13:48:52.170Z,41.20
2017-07-03T13:51:18.411Z,40.60
2017-07-03T13:53:44.868Z,41.20
2017-07-03T13:56:11.118Z,41.50
2017-07-03T13:58:37.303Z,41.50
2017-07-03T14:01:03.480Z,40.90
2017-07-03T14:03:29.672Z,41.40
2017-07-03T14:05:55.851Z,41.40
2017-07-03T14:08:22.794Z,41.10
2017-07-03T14:10:49.839Z,39.80
2017-07-03T14:13:16.779Z,41.50
2017-07-03T14:15:42.998Z,41.40
2017-07-03T14:18:09.154Z,41.40
2017-07-03T14:20:36.078Z,41.70
2017-07-03T14:23:02.260Z,41.70
2017-07-03T14:25:28.475Z,41.40
2017-07-03T14:27:54.643Z,41.10
2017-07-03T14:30:20.846Z,40.90
2017-07-03T14:32:47.032Z,41.60
2017-07-03T14:35:13.204Z,41.40
2017-07-03T14:37:39.407Z,39.70
2017-07-03T14:40:05.587Z,40.70
2017-07-03T14:42:31.800Z,40.60
2017-07-03T14:44:57.969Z,40.70
2017-07-03T14:47:24.880Z,41.10
2017-07-03T14:49:51.094Z,41.20
2017-07-03T14:52:17.259Z,41.30
2017-07-03T14:54:43.483Z,40.30
2017-07-03T14:57:09.677Z,41.20
2017-07-03T14:59:35.855Z,41.40
2017-07-03T15:02:02.006Z,40.90
2017-07-03T15:04:28.167Z,40.00
2017-07-03T15:06:54.321Z,41.30
2017-07-03T15:09:20.525Z,41.60
2017-07-03T15:11:46.727Z,40.90
2017-07-03T15:14:12.902Z,38.90
2017-07-03T15:16:39.123Z,40.20
2017-07-03T15:19:05.366Z,41.60
2017-07-03T15:21:31.547Z,41.70
2017-07-03T15:23:57.701Z,41.90
2017-07-03T15:26:23.911Z,42.10
2017-07-03T15:28:50.073Z,41.90
2017-07-03T15:31:16.213Z,41.40
2017-07-03T15:33:42.415Z,41.80
2017-07-03T15:36:08.952Z,41.80
2017-07-03T15:38:35.137Z,40.60
2017-07-03T15:41:01.351Z,40.60
2017-07-03T15:43:27.533Z,40.70
2017-07-03T15:45:53.739Z,40.60
2017-07-03T15:48:19.905Z,40.70
2017-07-03T15:50:46.055Z,40.60
2017-07-03T15:53:12.987Z,40.60
2017-07-03T15:55:39.154Z,40.60
2017-07-03T15:58:05.311Z,39.60
2017-07-03T16:00:31.519Z,40.60
2017-07-03T16:02:57.696Z,40.50
2017-07-03T16:05:23.896Z,40.10
2017-07-03T16:07:50.094Z,40.60
2017-07-03T16:10:31.247Z,40.60
2017-07-03T16:12:58.159Z,40.40
2017-07-03T16:15:24.359Z,40.40
2017-07-03T16:17:50.601Z,40.30
2017-07-03T16:20:16.811Z,40.80
2017-07-03T16:22:43.028Z,40.40
2017-07-03T16:25:09.193Z,40.40
2017-07-03T16:27:35.393Z,40.40
2017-07-03T16:30:01.617Z,40.50
2017-07-03T16:32:27.774Z,40.50
2017-07-03T16:34:53.979Z,40.90
2017-07-03T16:37:20.220Z,41.00
2017-07-03T16:39:46.543Z,41.70
2017-07-03T16:42:12.760Z,41.10
2017-07-03T16:44:38.986Z,41.40
2017-07-03T16:47:05.215Z,41.60
2017-07-03T16:49:31.428Z,41.50
2017-07-03T16:51:58.362Z,42.90
2017-07-03T16:54:24.626Z,42.20
2017-07-03T16:56:50.891Z,40.40
2017-07-03T16:59:17.094Z,41.70
2017-07-03T17:01:43.302Z,41.90
2017-07-03T17:04:10.257Z,41.20
2017-07-03T17:06:36.478Z,41.10
2017-07-03T17:09:02.741Z,42.10
2017-07-03T17:11:28.902Z,42.00
2017-07-03T17:13:55.107Z,42.10
2017-07-03T17:16:21.306Z,42.50
2017-07-03T17:18:47.494Z,42.50
2017-07-03T17:21:13.678Z,42.70
2017-07-03T17:23:39.845Z,43.00
2017-07-03T17:26:05.998Z,43.30
2017-07-03T17:28:32.220Z,43.60
2017-07-03T17:30:59.119Z,43.70
2017-07-03T17:33:25.342Z,43.70
2017-07-03T17:35:51.496Z,44.20
2017-07-03T17:38:17.683Z,44.50
2017-07-03T17:40:43.941Z,44.20
2017-07-03T17:43:10.110Z,43.90
2017-07-03T17:45:37.036Z,45.10
2017-07-03T17:48:03.219Z,44.60
2017-07-03T17:50:29.418Z,45.30
2017-07-03T17:52:55.619Z,45.30
2017-07-03T17:55:21.799Z,45.00
2017-07-03T17:57:48.023Z,44.50
2017-07-03T18:00:14.203Z,44.50
2017-07-03T18:02:40.424Z,44.50
2017-07-03T18:05:06.602Z,44.50
2017-07-03T18:07:32.773Z,44.50
2017-07-03T18:09:58.937Z,44.50
2017-07-03T18:12:25.863Z,44.40
2017-07-03T18:14:52.039Z,44.40
2017-07-03T18:17:18.246Z,44.40
2017-07-03T18:19:44.416Z,44.70
2017-07-03T18:22:10.685Z,44.80
2017-07-03T18:24:37.691Z,44.30
2017-07-03T18:27:03.894Z,44.80
2017-07-03T18:29:30.092Z,44.80
2017-07-03T18:31:57.091Z,44.80
2017-07-03T18:34:23.331Z,44.80
2017-07-03T18:36:49.553Z,44.80
2017-07-03T18:39:15.759Z,44.10
2017-07-03T18:41:41.981Z,44.80
2017-07-03T18:44:08.191Z,44.40
2017-07-03T18:46:35.111Z,45.10
2017-07-03T18:49:01.304Z,45.10
2017-07-03T18:51:27.502Z,45.20
2017-07-03T18:53:53.688Z,45.00
2017-07-03T18:56:19.857Z,45.10
2017-07-03T18:58:46.100Z,45.80
2017-07-03T19:01:12.290Z,45.10
2017-07-03T19:03:38.533Z,45.10
2017-07-03T19:06:05.522Z,44.50
2017-07-03T19:08:31.707Z,44.40
2017-07-03T19:10:58.667Z,44.90
2017-07-03T19:13:24.832Z,44.80
2017-07-03T19:15:51.048Z,46.30
2017-07-03T19:18:20.765Z,45.70
2017-07-03T19:20:54.079Z,45.00
2017-07-03T19:23:20.277Z,46.70
2017-07-03T19:25:46.507Z,46.00
2017-07-03T19:28:13.105Z,47.10
2017-07-03T19:30:40.067Z,46.20
2017-07-03T19:33:06.270Z,46.10
2017-07-03T19:35:32.480Z,47.00
2017-07-03T19:41:29.381Z,47.40
2017-07-03T19:43:56.309Z,47.30
2017-07-03T19:46:22.501Z,47.80
2017-07-03T19:48:48.692Z,47.20
2017-07-03T19:51:15.631Z,48.20
2017-07-03T19:53:42.594Z,49.40
2017-07-03T19:56:08.790Z,49.40
2017-07-03T19:58:35.000Z,48.90
2017-07-03T20:01:01.352Z,48.90
2017-07-03T20:03:27.592Z,48.60
2017-07-03T20:05:54.536Z,49.60
2017-07-03T20:08:21.458Z,51.10
2017-07-03T20:10:47.682Z,50.30
2017-07-03T20:13:13.848Z,49.60
2017-07-03T20:15:40.813Z,50.50
2017-07-03T20:18:07.065Z,50.40
2017-07-03T20:20:33.246Z,51.20
2017-07-03T20:22:59.457Z,51.10
2017-07-03T20:25:25.637Z,51.70
2017-07-03T20:27:51.783Z,52.10
2017-07-03T20:30:18.017Z,52.60
2017-07-03T20:32:44.189Z,52.20
2017-07-03T20:35:11.088Z,53.10
2017-07-03T20:37:37.308Z,53.10
2017-07-03T20:40:03.538Z,53.30
2017-07-03T20:42:29.818Z,52.20
2017-07-03T20:44:56.731Z,52.40
2017-07-03T20:47:22.956Z,52.30
2017-07-03T20:49:49.432Z,52.40
2017-07-03T20:52:15.649Z,52.30
2017-07-03T20:54:41.881Z,52.10
2017-07-03T20:57:08.835Z,52.20
2017-07-03T20:59:35.764Z,53.50
2017-07-03T21:02:01.954Z,53.40
2017-07-03T21:04:28.141Z,53.50
2017-07-03T21:06:55.109Z,53.40
2017-07-03T21:09:21.328Z,53.30
2017-07-03T21:11:47.564Z,53.00
2017-07-03T21:14:13.957Z,54.40
2017-07-03T21:16:40.912Z,53.20
2017-07-03T21:19:07.988Z,52.30
2017-07-03T21:21:34.236Z,52.30
2017-07-03T21:24:00.399Z,52.40
2017-07-03T21:26:27.023Z,51.90
2017-07-03T21:28:54.327Z,52.80
2017-07-03T21:31:20.524Z,52.90
2017-07-03T21:33:46.929Z,52.50
2017-07-03T21:36:13.624Z,52.80
2017-07-03T21:38:39.827Z,53.40
2017-07-03T21:41:06.276Z,52.20
2017-07-03T21:43:33.235Z,53.90
2017-07-03T21:46:00.171Z,53.20
2017-07-03T21:48:27.132Z,53.40
2017-07-03T21:50:53.303Z,52.90
2017-07-03T21:53:19.681Z,52.80
2017-07-03T21:55:46.075Z,52.40
2017-07-03T21:58:13.060Z,52.90
2017-07-03T22:00:40.028Z,52.60
2017-07-03T22:03:06.324Z,53.30
2017-07-03T22:05:32.495Z,53.30
2017-07-03T22:07:59.706Z,54.20
2017-07-03T22:10:25.948Z,53.50
2017-07-03T22:12:52.111Z,53.50
2017-07-03T22:15:18.651Z,53.50
2017-07-03T22:17:44.827Z,53.50
2017-07-03T22:20:11.231Z,52.40
2017-07-03T22:22:38.855Z,53.60
2017-07-03T22:25:05.080Z,54.10
2017-07-03T22:27:31.259Z,53.20
2017-07-03T22:29:57.450Z,53.10
2017-07-03T22:32:23.843Z,53.70
2017-07-03T22:34:50.795Z,53.70
2017-07-03T22:37:17.991Z,53.80
2017-07-03T22:39:44.179Z,53.70
2017-07-03T22:42:10.527Z,53.70
2017-07-03T22:44:36.834Z,54.50
2017-07-03T22:47:03.867Z,54.40
2017-07-03T22:49:30.284Z,53.70
2017-07-03T22:51:56.482Z,53.60
2017-07-03T22:54:22.636Z,54.30
2017-07-03T22:56:49.190Z,53.50
2017-07-03T22:59:15.381Z,54.20
2017-07-03T23:01:41.572Z,53.40
2017-07-03T23:04:08.500Z,54.40
2017-07-03T23:06:35.444Z,55.90
2017-07-03T23:09:01.671Z,55.10
2017-07-03T23:11:27.876Z,54.80
2017-07-03T23:13:54.187Z,55.50
2017-07-03T23:16:23.493Z,55.00
2017-07-03T23:18:49.716Z,55.00
2017-07-03T23:21:16.156Z,55.70
2017-07-03T23:23:42.383Z,55.60
2017-07-03T23:26:09.018Z,55.20
2017-07-03T23:28:35.228Z,55.70
2017-07-03T23:31:01.832Z,56.30
2017-07-03T23:33:29.843Z,56.80
2017-07-03T23:35:56.074Z,55.70
2017-07-03T23:38:22.639Z,55.40
2017-07-03T23:40:48.836Z,55.80
2017-07-03T23:43:15.123Z,55.00
2017-07-03T23:45:41.355Z,55.80
2017-07-03T23:48:07.525Z,56.10
2017-07-03T23:50:33.693Z,56.00
2017-07-03T23:52:59.881Z,55.60
2017-07-03T23:55:26.094Z,55.70
2017-07-03T23:57:52.299Z,56.20
